This is the latest recevied weather packets stored in our database for station/object W1MWS-13. If no packets are shown the sender has not sent any weather packets the latest 10 day(s).
| Time | Temp. | Humidity | Pressure | Rain* | Wind** | Luminosity | Snow |
|---|---|---|---|---|---|---|---|
| 1777408137 | 18.33° C | 39% | 1020.5 hPa | 0 mm | - | - | - |
| 1777407517 | 18.33° C | 40% | 1020.8 hPa | 0 mm | - | - | - |
| 1777406007 | 19.44° C | 41% | 1020.8 hPa | 0 mm | - | - | - |
| 1777405098 | 18.89° C | 44% | 1020.6 hPa | 0 mm | - | - | - |
| 1777403898 | 18.89° C | 46% | 1020.9 hPa | 0 mm | - | - | - |
| 1777403298 | 20° C | 48% | 1020.9 hPa | 0 mm | - | - | - |
| 1777403007 | 19.44° C | 48% | 1020.9 hPa | 0 mm | - | - | - |
| 1777400601 | 20° C | 46% | 1021.4 hPa | 0 mm | - | - | - |
| 1777400331 | 20.56° C | 45% | 1021.6 hPa | 0 mm | - | - | - |
| 1777398822 | 20° C | 45% | 1021.8 hPa | 0 mm | - | - | - |
| 1777398202 | 20° C | 47% | 1021.8 hPa | 0 mm | - | - | - |
| 1777396422 | 19.44° C | 49% | 1021.8 hPa | 0 mm | - | - | - |
| 1777396105 | 20° C | 49% | 1021.9 hPa | 0 mm | - | - | - |
| 1777391002 | 20.56° C | 48% | 1022.4 hPa | 0 mm | - | - | - |
| 1777390402 | 20.56° C | 49% | 1022.5 hPa | 0 mm | - | - | - |
| 1777388912 | 19.44° C | 50% | 1023 hPa | 0 mm | - | - | - |
| 1777388312 | 18.89° C | 49% | 1023 hPa | 0 mm | - | - | - |
| 1777387131 | 18.33° C | 53% | 1023 hPa | 0 mm | - | - | - |
| 1777386802 | 17.22° C | 55% | 1023 hPa | 0 mm | - | - | - |
| 1777385602 | 17.22° C | 55% | 1023.1 hPa | 0 mm | - | - | - |
| 1777385312 | 17.22° C | 54% | 1023.1 hPa | 0 mm | - | - | - |
| 1777383196 | 15.56° C | 59% | 1023.1 hPa | 0 mm | - | - | - |
| 1777381711 | 15° C | 62% | - | 0 mm | - | - | - |
| 1777379603 | 12.22° C | 70% | 1023.9 hPa | 0 mm | - | - | - |
| 1777378712 | 12.78° C | 73% | 1023.9 hPa | 0 mm | - | - | - |
* Rain latest hour (hover to see other rain measurements)
** Current wind speed in m/s (hover to see current wind gust speed)